Time,TemperatureF,DewpointF,PressureIn,WindDirection,WindDirectionDegrees,WindSpeedMPH,WindSpeedGustMPH,Humidity,HourlyPrecipIn,Conditions,Clouds,dailyrainin,SoftwareType,DateUTC
2013-03-30 00:00:00,42.3,29.4,29.97,NE,52,0.0,0.0,60,0.00,,SKC,0.00,WeatherDisplay:10.37,2013-03-30 04:00:00,
2013-03-30 00:05:00,42.3,29.4,29.97,NE,52,0.0,0.0,60,0.00,,SKC,0.00,WeatherDisplay:10.37,2013-03-30 04:05:00,
2013-03-30 00:10:00,42.3,29.4,29.98,NE,52,0.0,0.0,60,0.00,,SKC,0.00,WeatherDisplay:10.37,2013-03-30 04:10:00,
2013-03-30 00:15:00,42.3,29.4,29.98,NE,52,0.0,0.0,60,0.00,,SKC,0.00,WeatherDisplay:10.37,2013-03-30 04:15:00,
2013-03-30 00:16:00,42.3,29.4,29.98,NE,52,0.0,0.0,60,0.00,,SKC,0.00,WeatherDisplay:10.37,2013-03-30 04:16:00,
2013-03-30 00:20:00,42.3,29.4,29.98,NE,52,0.0,0.0,60,0.00,,SKC,0.00,WeatherDisplay:10.37,2013-03-30 04:20:00,
2013-03-30 00:25:00,42.2,29.3,29.98,North,0,2.0,2.0,60,0.00,,SKC,0.00,WeatherDisplay:10.37,2013-03-30 04:25:00,
2013-03-30 00:30:00,42.2,29.3,29.98,North,0,0.0,0.0,60,0.00,,SKC,0.00,WeatherDisplay:10.37,2013-03-30 04:30:00,
2013-03-30 00:35:00,42.2,29.7,29.98,North,0,0.0,0.0,61,0.00,,SKC,0.00,WeatherDisplay:10.37,2013-03-30 04:35:00,
2013-03-30 00:40:00,42.2,29.7,29.98,North,0,0.0,0.0,61,0.00,,SKC,0.00,WeatherDisplay:10.37,2013-03-30 04:40:00,
2013-03-30 00:46:00,42.1,29.6,29.98,North,0,0.0,0.0,61,0.00,,SKC,0.00,WeatherDisplay:10.37,2013-03-30 04:46:00,
2013-03-30 00:51:00,42.1,29.6,29.97,North,0,0.0,0.0,61,0.00,,SKC,0.00,WeatherDisplay:10.37,2013-03-30 04:51:00,
2013-03-30 00:56:00,42.1,30.0,29.98,North,0,0.0,0.0,62,0.00,,SKC,0.00,WeatherDisplay:10.37,2013-03-30 04:56:00,
2013-03-30 01:01:00,41.9,29.8,29.98,North,0,1.1,0.0,62,0.00,,SKC,0.00,WeatherDisplay:10.37,2013-03-30 05:01:00,
2013-03-30 01:07:00,41.8,29.7,29.98,North,0,0.0,0.0,62,0.00,,SKC,0.00,WeatherDisplay:10.37,2013-03-30 05:07:00,
2013-03-30 01:12:00,41.8,29.7,29.98,North,0,0.0,0.0,62,0.00,,SKC,0.00,WeatherDisplay:10.37,2013-03-30 05:12:00,
2013-03-30 01:17:00,41.6,29.5,29.98,North,0,0.0,0.0,62,0.00,,SKC,0.00,WeatherDisplay:10.37,2013-03-30 05:17:00,
2013-03-30 01:22:00,41.6,29.9,29.98,North,0,0.0,0.0,63,0.00,,SKC,0.00,WeatherDisplay:10.37,2013-03-30 05:22:00,
2013-03-30 01:27:00,41.5,30.2,29.98,North,0,0.0,0.0,64,0.00,,SKC,0.00,WeatherDisplay:10.37,2013-03-30 05:27:00,
2013-03-30 01:33:00,41.5,29.8,29.98,North,0,0.0,0.0,63,0.00,,SKC,0.00,WeatherDisplay:10.37,2013-03-30 05:33:00,
2013-03-30 01:38:00,41.3,29.6,29.97,North,0,0.0,0.0,63,0.00,,SKC,0.00,WeatherDisplay:10.37,2013-03-30 05:38:00,
2013-03-30 01:43:00,41.2,29.5,29.97,NW,322,2.3,2.3,63,0.00,,SKC,0.00,WeatherDisplay:10.37,2013-03-30 05:43:00,
2013-03-30 01:48:00,41.1,29.5,29.97,NW,309,2.3,0.0,63,0.00,,SKC,0.00,WeatherDisplay:10.37,2013-03-30 05:48:00,
2013-03-30 01:53:00,41.1,29.5,29.97,NW,309,0.0,0.0,63,0.00,,SKC,0.00,WeatherDisplay:10.37,2013-03-30 05:53:00,
2013-03-30 01:58:00,41.1,29.5,29.97,NNW,340,2.3,2.3,63,0.00,,SKC,0.00,WeatherDisplay:10.37,2013-03-30 05:58:00,
2013-03-30 02:03:00,40.9,29.3,29.97,NNW,342,1.1,1.1,63,0.00,,SKC,0.00,WeatherDisplay:10.37,2013-03-30 06:03:00,
2013-03-30 02:08:00,40.9,29.7,29.97,North,356,1.1,0.0,64,0.00,,SKC,0.00,WeatherDisplay:10.37,2013-03-30 06:08:00,
2013-03-30 02:13:00,40.8,29.6,29.97,North,356,0.0,0.0,64,0.00,,SKC,0.00,WeatherDisplay:10.37,2013-03-30 06:13:00,
2013-03-30 02:18:00,40.8,29.6,29.98,North,356,0.0,0.0,64,0.00,,SKC,0.00,WeatherDisplay:10.37,2013-03-30 06:18:00,
2013-03-30 02:23:00,40.6,29.4,29.98,North,356,0.0,0.0,64,0.00,,SKC,0.00,WeatherDisplay:10.37,2013-03-30 06:23:00,
2013-03-30 02:29:00,40.3,29.1,29.98,North,356,0.0,0.0,64,0.00,,SKC,0.00,WeatherDisplay:10.37,2013-03-30 06:29:00,
2013-03-30 02:34:00,40.1,28.9,29.98,North,356,0.0,0.0,64,0.00,,SKC,0.00,WeatherDisplay:10.37,2013-03-30 06:34:00,
2013-03-30 02:39:00,39.9,29.1,29.98,North,356,0.0,0.0,65,0.00,,SKC,0.00,WeatherDisplay:10.37,2013-03-30 06:39:00,
2013-03-30 02:44:00,39.5,29.1,29.98,North,356,0.0,0.0,66,0.00,,SKC,0.00,WeatherDisplay:10.37,2013-03-30 06:44:00,
2013-03-30 02:49:00,39.2,29.2,29.98,North,356,0.0,0.0,67,0.00,,SKC,0.00,WeatherDisplay:10.37,2013-03-30 06:49:00,
2013-03-30 02:54:00,38.8,28.8,29.98,North,356,0.0,0.0,67,0.00,,SKC,0.00,WeatherDisplay:10.37,2013-03-30 06:54:00,
2013-03-30 02:59:00,38.3,28.7,29.98,North,356,0.0,0.0,68,0.00,,SKC,0.00,WeatherDisplay:10.37,2013-03-30 06:59:00,
2013-03-30 03:04:00,37.8,28.5,29.98,North,356,0.0,0.0,69,0.00,,SKC,0.00,WeatherDisplay:10.37,2013-03-30 07:04:00,
2013-03-30 03:09:00,37.5,28.6,29.98,North,356,0.0,0.0,70,0.00,,SKC,0.00,WeatherDisplay:10.37,2013-03-30 07:09:00,
2013-03-30 03:14:00,37.0,28.5,29.98,North,356,0.0,0.0,71,0.00,,SKC,0.00,WeatherDisplay:10.37,2013-03-30 07:14:00,
2013-03-30 03:19:00,36.6,28.4,29.98,North,356,0.0,0.0,72,0.00,,SKC,0.00,WeatherDisplay:10.37,2013-03-30 07:19:00,
2013-03-30 03:24:00,36.3,28.1,29.98,North,356,0.0,0.0,72,0.00,,SKC,0.00,WeatherDisplay:10.37,2013-03-30 07:24:00,
2013-03-30 03:29:00,36.0,27.8,29.98,NNW,337,2.3,0.0,72,0.00,,SKC,0.00,WeatherDisplay:10.37,2013-03-30 07:29:00,
2013-03-30 03:34:00,35.8,28.0,29.98,NNW,337,1.1,1.1,73,0.00,,SKC,0.00,WeatherDisplay:10.37,2013-03-30 07:34:00,
2013-03-30 03:39:00,35.6,28.1,29.98,NNW,337,0.0,0.0,74,0.00,,SKC,0.00,WeatherDisplay:10.37,2013-03-30 07:39:00,
2013-03-30 03:44:00,35.6,28.5,29.98,NW,320,0.0,0.0,75,0.00,,SKC,0.00,WeatherDisplay:10.37,2013-03-30 07:44:00,
2013-03-30 03:49:00,35.9,28.7,29.97,NW,316,2.3,2.3,75,0.00,,SKC,0.00,WeatherDisplay:10.37,2013-03-30 07:49:00,
2013-03-30 03:54:00,36.2,28.7,29.97,NW,316,1.1,0.0,74,0.00,,SKC,0.00,WeatherDisplay:10.37,2013-03-30 07:54:00,
2013-03-30 03:59:00,36.5,28.7,29.97,NNW,346,2.3,2.3,73,0.00,,SKC,0.00,WeatherDisplay:10.37,2013-03-30 07:59:00,
2013-03-30 04:04:00,36.9,28.7,29.97,NNW,346,1.1,1.1,72,0.00,,SKC,0.00,WeatherDisplay:10.37,2013-03-30 08:04:00,
2013-03-30 04:09:00,37.2,28.7,29.97,NW,311,2.3,2.3,71,0.00,,SKC,0.00,WeatherDisplay:10.37,2013-03-30 08:09:00,
2013-03-30 04:14:00,37.6,29.0,29.97,NNW,337,2.3,2.3,71,0.00,,SKC,0.00,WeatherDisplay:10.37,2013-03-30 08:14:00,
2013-03-30 04:19:00,37.8,28.9,29.97,NW,316,3.0,3.0,70,0.00,,SKC,0.00,WeatherDisplay:10.37,2013-03-30 08:19:00,
2013-03-30 04:24:00,37.9,28.6,29.97,NW,316,1.1,1.1,69,0.00,,SKC,0.00,WeatherDisplay:10.37,2013-03-30 08:24:00,
2013-03-30 04:29:00,38.2,28.9,29.97,North,1,3.5,3.5,69,0.00,,SKC,0.00,WeatherDisplay:10.37,2013-03-30 08:29:00,
2013-03-30 04:34:00,38.3,29.0,29.97,North,0,2.0,2.0,69,0.00,,SKC,0.00,WeatherDisplay:10.37,2013-03-30 08:34:00,
2013-03-30 04:39:00,38.3,29.0,29.97,NNW,333,0.0,0.0,69,0.00,,SKC,0.00,WeatherDisplay:10.37,2013-03-30 08:39:00,
2013-03-30 04:45:00,38.5,28.9,29.97,North,356,0.0,3.0,68,0.00,,SKC,0.00,WeatherDisplay:10.37,2013-03-30 08:45:00,
2013-03-30 04:50:00,38.5,28.9,29.97,North,0,0.0,0.0,68,0.00,,SKC,0.00,WeatherDisplay:10.37,2013-03-30 08:50:00,
2013-03-30 04:55:00,38.5,28.9,29.97,NW,318,1.1,0.0,68,0.00,,SKC,0.00,WeatherDisplay:10.37,2013-03-30 08:55:00,
2013-03-30 05:00:00,38.5,29.2,29.97,NW,318,1.0,1.0,69,0.00,,SKC,0.00,WeatherDisplay:10.37,2013-03-30 09:00:00,
2013-03-30 05:05:00,38.5,29.2,29.98,NW,318,0.0,0.0,69,0.00,,SKC,0.00,WeatherDisplay:10.37,2013-03-30 09:05:00,
2013-03-30 05:10:00,38.5,29.2,29.98,NW,318,0.0,0.0,69,0.00,,SKC,0.00,WeatherDisplay:10.37,2013-03-30 09:10:00,
2013-03-30 05:15:00,38.3,28.7,29.98,NW,318,0.0,0.0,68,0.00,,SKC,0.00,WeatherDisplay:10.37,2013-03-30 09:15:00,
2013-03-30 05:20:00,38.2,28.6,29.98,NW,318,0.0,0.0,68,0.00,,SKC,0.00,WeatherDisplay:10.37,2013-03-30 09:20:00,
2013-03-30 05:25:00,37.9,28.6,29.98,ENE,65,0.0,0.0,69,0.00,,SKC,0.00,WeatherDisplay:10.37,2013-03-30 09:25:00,
2013-03-30 05:30:00,37.8,28.9,29.98,ENE,65,0.0,0.0,70,0.00,,SKC,0.00,WeatherDisplay:10.37,2013-03-30 09:30:00,
2013-03-30 05:34:00,37.6,28.3,29.98,ENE,65,0.0,0.0,69,0.00,,SKC,0.00,WeatherDisplay:10.37,2013-03-30 09:34:00,
2013-03-30 05:39:00,37.3,28.1,29.98,ENE,65,0.0,0.0,69,0.00,,SKC,0.00,WeatherDisplay:10.37,2013-03-30 09:39:00,
2013-03-30 05:44:00,36.9,27.7,29.98,ENE,65,0.0,0.0,69,0.00,,SKC,0.00,WeatherDisplay:10.37,2013-03-30 09:44:00,
2013-03-30 05:49:00,36.5,27.3,29.98,ENE,65,0.0,0.0,69,0.00,,SKC,0.00,WeatherDisplay:10.37,2013-03-30 09:49:00,
2013-03-30 05:54:00,36.2,27.4,29.98,ENE,65,0.0,0.0,70,0.00,,SKC,0.00,WeatherDisplay:10.37,2013-03-30 09:54:00,
2013-03-30 05:59:00,35.8,27.7,29.99,ENE,65,0.0,0.0,72,0.00,,SKC,0.00,WeatherDisplay:10.37,2013-03-30 09:59:00,
2013-03-30 06:04:00,35.3,27.5,29.99,ENE,65,0.0,0.0,73,0.00,,SKC,0.00,WeatherDisplay:10.37,2013-03-30 10:04:00,
2013-03-30 06:09:00,34.9,27.1,29.99,ENE,65,0.0,0.0,73,0.00,,SKC,0.00,WeatherDisplay:10.37,2013-03-30 10:09:00,
2013-03-30 06:14:00,34.6,27.5,29.99,ENE,65,0.0,0.0,75,0.00,,SKC,0.00,WeatherDisplay:10.37,2013-03-30 10:14:00,
2013-03-30 06:19:00,34.1,27.0,29.99,ENE,65,0.0,0.0,75,0.00,,SKC,0.00,WeatherDisplay:10.37,2013-03-30 10:19:00,
2013-03-30 06:24:00,33.8,27.0,29.99,ENE,65,0.0,0.0,76,0.00,,SKC,0.00,WeatherDisplay:10.37,2013-03-30 10:24:00,
2013-03-30 06:29:00,33.5,26.7,29.99,ENE,65,0.0,0.0,76,0.00,,SKC,0.00,WeatherDisplay:10.37,2013-03-30 10:29:00,
2013-03-30 06:34:00,33.2,26.8,29.99,ENE,65,0.0,0.0,77,0.00,,SKC,0.00,WeatherDisplay:10.37,2013-03-30 10:34:00,
2013-03-30 06:39:00,32.9,26.8,29.99,ENE,65,0.0,0.0,78,0.00,,SKC,0.00,WeatherDisplay:10.37,2013-03-30 10:39:00,
2013-03-30 06:44:00,32.8,27.3,29.99,WSW,253,3.5,3.5,80,0.00,,SKC,0.00,WeatherDisplay:10.37,2013-03-30 10:44:00,
2013-03-30 06:49:00,33.1,27.9,29.99,NW,313,2.3,2.3,81,0.00,,SKC,0.00,WeatherDisplay:10.37,2013-03-30 10:49:00,
2013-03-30 06:54:00,33.8,28.6,29.99,WNW,295,3.5,3.5,81,0.00,,SKC,0.00,WeatherDisplay:10.37,2013-03-30 10:54:00,
2013-03-30 06:59:00,34.6,29.1,29.99,North,3,1.1,0.0,80,0.00,,SKC,0.00,WeatherDisplay:10.37,2013-03-30 10:59:00,
2013-03-30 07:04:00,35.3,29.1,29.99,NNW,335,3.5,3.5,78,0.00,,SKC,0.00,WeatherDisplay:10.37,2013-03-30 11:04:00,
2013-03-30 07:09:00,35.9,29.1,29.99,NW,322,5.8,5.8,76,0.00,,SKC,0.00,WeatherDisplay:10.37,2013-03-30 11:09:00,
2013-03-30 07:14:00,36.6,29.4,30.00,WNW,302,7.0,7.0,75,0.00,,SKC,0.00,WeatherDisplay:10.37,2013-03-30 11:14:00,
2013-03-30 07:19:00,37.2,29.3,30.00,NNW,329,4.6,4.6,73,0.00,,SKC,0.00,WeatherDisplay:10.37,2013-03-30 11:19:00,
2013-03-30 07:24:00,37.8,29.6,29.99,NNW,330,5.8,5.8,72,0.00,,SKC,0.00,WeatherDisplay:10.37,2013-03-30 11:24:00,
2013-03-30 07:29:00,38.3,29.7,30.00,NW,311,8.1,8.1,71,0.00,,SKC,0.00,WeatherDisplay:10.37,2013-03-30 11:29:00,
2013-03-30 07:34:00,38.9,29.6,30.00,NW,309,5.0,5.0,69,0.00,,SKC,0.00,WeatherDisplay:10.37,2013-03-30 11:34:00,
2013-03-30 07:39:00,39.5,29.8,30.00,North,0,7.0,7.0,68,0.00,,SKC,0.00,WeatherDisplay:10.37,2013-03-30 11:39:00,
2013-03-30 07:44:00,39.9,30.2,30.00,North,0,5.0,5.0,68,0.00,,SKC,0.00,WeatherDisplay:10.37,2013-03-30 11:44:00,
2013-03-30 07:49:00,40.2,30.1,30.00,West,261,4.6,4.6,67,0.00,,SKC,0.00,WeatherDisplay:10.37,2013-03-30 11:49:00,
2013-03-30 07:54:00,40.5,30.0,30.00,NNW,335,3.5,3.5,66,0.00,,SKC,0.00,WeatherDisplay:10.37,2013-03-30 11:54:00,
2013-03-30 07:59:00,40.9,30.0,30.00,NNE,25,2.3,2.3,65,0.00,,SKC,0.00,WeatherDisplay:10.37,2013-03-30 11:59:00,
2013-03-30 08:04:00,41.2,30.3,30.00,NNW,335,5.8,5.8,65,0.00,,SKC,0.00,WeatherDisplay:10.37,2013-03-30 12:04:00,
2013-03-30 08:09:00,41.6,30.3,30.00,North,352,1.1,1.1,64,0.00,,SKC,0.00,WeatherDisplay:10.37,2013-03-30 12:09:00,
2013-03-30 08:14:00,41.9,30.2,30.00,WSW,243,3.5,0.0,63,0.00,,SKC,0.00,WeatherDisplay:10.37,2013-03-30 12:14:00,
2013-03-30 08:19:00,42.2,30.5,30.00,North,11,3.5,3.5,63,0.00,,SKC,0.00,WeatherDisplay:10.37,2013-03-30 12:19:00,
2013-03-30 08:24:00,42.6,30.1,30.00,NNW,339,5.8,5.8,61,0.00,,SKC,0.00,WeatherDisplay:10.37,2013-03-30 12:24:00,
2013-03-30 08:29:00,42.9,30.4,30.01,NW,325,2.3,0.0,61,0.00,,SKC,0.00,WeatherDisplay:10.37,2013-03-30 12:29:00,
2013-03-30 08:34:00,43.2,30.6,30.01,ENE,62,0.0,0.0,61,0.00,,SKC,0.00,WeatherDisplay:10.37,2013-03-30 12:34:00,
2013-03-30 08:39:00,43.5,30.5,30.01,West,274,2.0,2.0,60,0.00,,SKC,0.00,WeatherDisplay:10.37,2013-03-30 12:39:00,
2013-03-30 08:44:00,43.8,30.4,30.00,NNW,347,4.0,4.0,59,0.00,,SKC,0.00,WeatherDisplay:10.37,2013-03-30 12:44:00,
2013-03-30 08:49:00,44.1,30.7,30.00,North,4,1.1,0.0,59,0.00,,SKC,0.00,WeatherDisplay:10.37,2013-03-30 12:49:00,
2013-03-30 08:54:00,44.5,30.6,30.00,North,4,0.0,0.0,58,0.00,,SKC,0.00,WeatherDisplay:10.37,2013-03-30 12:54:00,
2013-03-30 08:59:00,44.9,30.1,30.00,NNW,337,4.0,4.0,56,0.00,,SKC,0.00,WeatherDisplay:10.37,2013-03-30 12:59:00,
2013-03-30 09:04:00,45.2,30.0,30.00,NNW,332,3.5,3.5,55,0.00,,SKC,0.00,WeatherDisplay:10.37,2013-03-30 13:04:00,
2013-03-30 09:09:00,45.8,30.1,30.00,NNW,330,2.3,0.0,54,0.00,,SKC,0.00,WeatherDisplay:10.37,2013-03-30 13:09:00,
2013-03-30 09:14:00,46.4,29.7,30.00,NNE,30,2.3,2.3,52,0.00,,SKC,0.00,WeatherDisplay:10.37,2013-03-30 13:14:00,
2013-03-30 09:19:00,47.0,30.3,30.00,NNW,329,4.6,0.0,52,0.00,,SKC,0.00,WeatherDisplay:10.37,2013-03-30 13:19:00,
2013-03-30 09:24:00,47.6,30.8,30.00,NNW,329,0.0,0.0,52,0.00,,SKC,0.00,WeatherDisplay:10.37,2013-03-30 13:24:00,
2013-03-30 09:29:00,48.2,30.4,30.00,NNW,329,0.0,0.0,50,0.00,,SKC,0.00,WeatherDisplay:10.37,2013-03-30 13:29:00,
2013-03-30 09:34:00,48.8,31.0,30.00,East,93,0.0,0.0,50,0.00,,SKC,0.00,WeatherDisplay:10.37,2013-03-30 13:34:00,
2013-03-30 09:39:00,49.4,29.5,30.00,WNW,296,3.0,3.0,46,0.00,,SKC,0.00,WeatherDisplay:10.37,2013-03-30 13:39:00,
2013-03-30 09:44:00,49.9,30.5,30.00,ENE,64,2.3,2.3,47,0.00,,SKC,0.00,WeatherDisplay:10.37,2013-03-30 13:44:00,
2013-03-30 09:49:00,50.4,29.8,30.00,NE,40,2.3,2.3,45,0.00,,SKC,0.00,WeatherDisplay:10.37,2013-03-30 13:49:00,
2013-03-30 09:54:00,50.5,28.8,30.00,North,359,4.6,4.6,43,0.00,,SKC,0.00,WeatherDisplay:10.37,2013-03-30 13:54:00,
2013-03-30 09:59:00,50.8,29.6,30.00,North,350,2.3,0.0,44,0.00,,SKC,0.00,WeatherDisplay:10.37,2013-03-30 13:59:00,
2013-03-30 10:04:00,51.3,29.0,30.00,WNW,285,3.0,3.0,42,0.00,,SKC,0.00,WeatherDisplay:10.37,2013-03-30 14:04:00,
2013-03-30 10:09:00,51.4,27.2,30.00,NW,312,5.8,5.8,39,0.00,,SKC,0.00,WeatherDisplay:10.37,2013-03-30 14:09:00,
2013-03-30 10:14:00,51.6,28.0,30.00,NNW,337,2.3,2.3,40,0.00,,SKC,0.00,WeatherDisplay:10.37,2013-03-30 14:14:00,
2013-03-30 10:19:00,51.7,28.1,30.00,West,281,4.0,4.0,40,0.00,,SKC,0.00,WeatherDisplay:10.37,2013-03-30 14:19:00,
2013-03-30 10:24:00,51.7,27.5,30.00,NNE,17,3.5,3.5,39,0.00,,SKC,0.00,WeatherDisplay:10.37,2013-03-30 14:24:00,
2013-03-30 10:29:00,52.0,27.8,30.00,NW,311,3.0,3.0,39,0.00,,SKC,0.00,WeatherDisplay:10.37,2013-03-30 14:29:00,
2013-03-30 10:34:00,52.2,26.0,30.00,NNW,335,3.5,3.5,36,0.00,,SKC,0.00,WeatherDisplay:10.37,2013-03-30 14:34:00,
2013-03-30 10:39:00,52.3,24.7,30.00,ENE,72,3.5,3.5,34,0.00,,SKC,0.00,WeatherDisplay:10.37,2013-03-30 14:39:00,
2013-03-30 10:44:00,52.2,23.9,30.00,West,271,12.7,12.7,33,0.00,,SKC,0.00,WeatherDisplay:10.37,2013-03-30 14:44:00,
2013-03-30 10:49:00,52.3,24.7,30.00,North,1,3.5,3.5,34,0.00,,SKC,0.00,WeatherDisplay:10.37,2013-03-30 14:49:00,
2013-03-30 10:54:00,52.3,23.3,30.00,ENE,75,3.5,3.5,32,0.00,,SKC,0.00,WeatherDisplay:10.37,2013-03-30 14:54:00,
2013-03-30 10:59:00,52.5,22.7,30.00,WNW,295,11.5,11.5,31,0.00,,SKC,0.00,WeatherDisplay:10.37,2013-03-30 14:59:00,
2013-03-30 11:04:00,52.8,23.0,30.00,NNW,337,3.5,3.5,31,0.00,,SKC,0.00,WeatherDisplay:10.37,2013-03-30 15:04:00,
2013-03-30 11:09:00,53.1,24.7,30.00,North,6,4.6,4.6,33,0.00,,SKC,0.00,WeatherDisplay:10.37,2013-03-30 15:09:00,
2013-03-30 11:14:00,53.3,23.4,29.99,North,6,1.1,0.0,31,0.00,,SKC,0.00,WeatherDisplay:10.37,2013-03-30 15:14:00,
2013-03-30 11:19:00,53.3,24.2,29.99,NW,309,6.9,6.9,32,0.00,,SKC,0.00,WeatherDisplay:10.37,2013-03-30 15:19:00,
2013-03-30 11:24:00,53.5,22.8,29.99,North,0,5.0,5.0,30,0.00,,SKC,0.00,WeatherDisplay:10.37,2013-03-30 15:24:00,
2013-03-30 11:29:00,53.9,23.1,29.99,NNE,24,3.0,3.0,30,0.00,,SKC,0.00,WeatherDisplay:10.37,2013-03-30 15:29:00,
2013-03-30 11:34:00,54.1,24.1,29.99,NE,38,6.0,6.0,31,0.00,,SKC,0.00,WeatherDisplay:10.37,2013-03-30 15:34:00,
2013-03-30 11:39:00,53.9,20.6,29.99,North,0,3.5,0.0,27,0.00,,SKC,0.00,WeatherDisplay:10.37,2013-03-30 15:39:00,
2013-03-30 11:44:00,54.2,20.9,29.98,North,7,3.0,3.0,27,0.00,,SKC,0.00,WeatherDisplay:10.37,2013-03-30 15:44:00,
2013-03-30 11:49:00,54.2,21.8,29.99,WNW,295,5.8,5.8,28,0.00,,SKC,0.00,WeatherDisplay:10.37,2013-03-30 15:49:00,
2013-03-30 11:54:00,54.4,21.9,29.98,WNW,298,6.0,6.0,28,0.00,,SKC,0.00,WeatherDisplay:10.37,2013-03-30 15:54:00,
2013-03-30 11:59:00,54.8,23.9,29.98,NNE,27,2.0,2.0,30,0.00,,SKC,0.00,WeatherDisplay:10.37,2013-03-30 15:59:00,
2013-03-30 12:04:00,54.8,21.4,29.98,ENE,68,3.0,3.0,27,0.00,,SKC,0.00,WeatherDisplay:10.37,2013-03-30 16:04:00,
2013-03-30 12:09:00,55.1,22.5,29.98,North,0,3.0,3.0,28,0.00,,SKC,0.00,WeatherDisplay:10.37,2013-03-30 16:09:00,
2013-03-30 12:14:00,55.3,21.8,29.98,North,356,4.6,4.6,27,0.00,,SKC,0.00,WeatherDisplay:10.37,2013-03-30 16:14:00,
2013-03-30 12:19:00,55.6,23.0,29.98,NW,322,2.3,0.0,28,0.00,,SKC,0.00,WeatherDisplay:10.37,2013-03-30 16:19:00,
2013-03-30 12:24:00,55.7,23.1,29.98,NNE,32,3.5,3.5,28,0.00,,SKC,0.00,WeatherDisplay:10.37,2013-03-30 16:24:00,
2013-03-30 12:29:00,55.6,23.8,29.98,NNE,14,1.1,1.1,29,0.00,,SKC,0.00,WeatherDisplay:10.37,2013-03-30 16:29:00,
2013-03-30 12:34:00,55.6,23.8,29.98,NE,52,1.1,0.0,29,0.00,,SKC,0.00,WeatherDisplay:10.37,2013-03-30 16:34:00,
2013-03-30 12:39:00,55.4,21.9,29.98,North,359,6.0,6.0,27,0.00,,SKC,0.00,WeatherDisplay:10.37,2013-03-30 16:39:00,
2013-03-30 12:44:00,55.4,22.8,29.98,NW,325,3.0,3.0,28,0.00,,SKC,0.00,WeatherDisplay:10.37,2013-03-30 16:44:00,
2013-03-30 12:49:00,55.7,24.7,29.98,South,181,3.5,3.5,30,0.00,,SKC,0.00,WeatherDisplay:10.37,2013-03-30 16:49:00,
2013-03-30 12:54:00,55.9,23.2,29.97,NW,318,6.9,6.9,28,0.00,,SKC,0.00,WeatherDisplay:10.37,2013-03-30 16:54:00,
2013-03-30 12:59:00,55.9,23.2,29.97,NNW,347,1.1,1.1,28,0.00,,SKC,0.00,WeatherDisplay:10.37,2013-03-30 16:59:00,
2013-03-30 13:05:00,56.0,23.3,29.97,West,275,7.0,7.0,28,0.00,,SKC,0.00,WeatherDisplay:10.37,2013-03-30 17:05:00,
2013-03-30 13:10:00,55.6,22.1,29.97,NE,42,0.0,0.0,27,0.00,,SKC,0.00,WeatherDisplay:10.37,2013-03-30 17:10:00,
2013-03-30 13:15:00,55.1,22.5,29.97,NE,42,2.3,0.0,28,0.00,,SKC,0.00,WeatherDisplay:10.37,2013-03-30 17:15:00,
2013-03-30 13:20:00,55.0,21.6,29.97,NNE,28,2.3,2.3,27,0.00,,SKC,0.00,WeatherDisplay:10.37,2013-03-30 17:20:00,
2013-03-30 13:25:00,55.0,21.6,29.96,North,0,3.5,3.5,27,0.00,,SKC,0.00,WeatherDisplay:10.37,2013-03-30 17:25:00,
2013-03-30 13:30:00,55.1,21.7,29.95,WSW,257,2.3,0.0,27,0.00,,SKC,0.00,WeatherDisplay:10.37,2013-03-30 17:30:00,
2013-03-30 13:35:00,55.3,22.7,29.95,WNW,285,7.0,7.0,28,0.00,,SKC,0.00,WeatherDisplay:10.37,2013-03-30 17:35:00,
2013-03-30 13:40:00,55.6,22.1,29.95,ENE,61,3.0,3.0,27,0.00,,SKC,0.00,WeatherDisplay:10.37,2013-03-30 17:40:00,
2013-03-30 13:45:00,56.0,22.4,29.95,North,0,4.6,4.6,27,0.00,,SKC,0.00,WeatherDisplay:10.37,2013-03-30 17:45:00,
2013-03-30 13:50:00,56.3,21.8,29.95,NNW,337,3.5,3.5,26,0.00,,SKC,0.00,WeatherDisplay:10.37,2013-03-30 17:50:00,
2013-03-30 13:55:00,56.3,21.8,29.95,NNE,28,3.5,3.5,26,0.00,,SKC,0.00,WeatherDisplay:10.37,2013-03-30 17:55:00,
2013-03-30 14:00:00,56.3,23.6,29.95,NNE,32,2.0,2.0,28,0.00,,SKC,0.00,WeatherDisplay:10.37,2013-03-30 18:00:00,
2013-03-30 14:05:00,56.6,22.1,29.95,North,0,3.5,3.5,26,0.00,,SKC,0.00,WeatherDisplay:10.37,2013-03-30 18:05:00,
2013-03-30 14:10:00,56.7,21.2,29.95,North,11,4.6,4.6,25,0.00,,SKC,0.00,WeatherDisplay:10.37,2013-03-30 18:10:00,
2013-03-30 14:15:00,57.0,20.5,29.94,North,6,2.3,2.3,24,0.00,,SKC,0.00,WeatherDisplay:10.37,2013-03-30 18:15:00,
2013-03-30 14:20:00,57.0,21.5,29.94,NNE,27,4.6,4.6,25,0.00,,SKC,0.00,WeatherDisplay:10.37,2013-03-30 18:20:00,
2013-03-30 14:25:00,57.2,21.6,29.94,East,99,0.0,0.0,25,0.00,,SKC,0.00,WeatherDisplay:10.37,2013-03-30 18:25:00,
2013-03-30 14:30:00,57.0,20.5,29.94,ENE,72,5.8,5.8,24,0.00,,SKC,0.00,WeatherDisplay:10.37,2013-03-30 18:30:00,
2013-03-30 14:35:00,57.0,20.5,29.94,NNW,337,3.0,3.0,24,0.00,,SKC,0.00,WeatherDisplay:10.37,2013-03-30 18:35:00,
2013-03-30 14:40:00,56.9,20.4,29.94,North,6,9.2,9.2,24,0.00,,SKC,0.00,WeatherDisplay:10.37,2013-03-30 18:40:00,
2013-03-30 14:45:00,56.9,20.4,29.93,NNE,16,1.0,1.0,24,0.00,,SKC,0.00,WeatherDisplay:10.37,2013-03-30 18:45:00,
2013-03-30 14:50:00,56.9,20.4,29.94,NNE,20,4.6,4.6,24,0.00,,SKC,0.00,WeatherDisplay:10.37,2013-03-30 18:50:00,
2013-03-30 14:55:00,56.6,21.1,29.94,North,0,1.1,0.0,25,0.00,,SKC,0.00,WeatherDisplay:10.37,2013-03-30 18:55:00,
2013-03-30 15:00:00,56.3,19.9,29.94,North,0,0.0,0.0,24,0.00,,SKC,0.00,WeatherDisplay:10.37,2013-03-30 19:00:00,
2013-03-30 15:05:00,56.3,22.7,29.94,North,1,2.0,2.0,27,0.00,,SKC,0.00,WeatherDisplay:10.37,2013-03-30 19:05:00,
2013-03-30 15:10:00,56.5,21.1,29.94,North,0,4.6,4.6,25,0.00,,SKC,0.00,WeatherDisplay:10.37,2013-03-30 19:10:00,
2013-03-30 15:15:00,56.6,23.0,29.94,North,359,2.3,2.3,27,0.00,,SKC,0.00,WeatherDisplay:10.37,2013-03-30 19:15:00,
2013-03-30 15:21:00,56.7,20.3,29.94,West,267,6.0,6.0,24,0.00,,SKC,0.00,WeatherDisplay:10.37,2013-03-30 19:21:00,
2013-03-30 15:26:00,57.0,20.5,29.93,NE,51,2.0,2.0,24,0.00,,SKC,0.00,WeatherDisplay:10.37,2013-03-30 19:26:00,
2013-03-30 15:31:00,57.0,20.5,29.93,NNW,328,3.5,3.5,24,0.00,,SKC,0.00,WeatherDisplay:10.37,2013-03-30 19:31:00,
2013-03-30 15:36:00,56.9,21.4,29.94,North,1,4.6,4.6,25,0.00,,SKC,0.00,WeatherDisplay:10.37,2013-03-30 19:36:00,
2013-03-30 15:41:00,56.5,22.0,29.93,ENE,68,1.1,1.1,26,0.00,,SKC,0.00,WeatherDisplay:10.37,2013-03-30 19:41:00,
2013-03-30 15:46:00,56.2,21.7,29.93,NNW,329,4.6,4.6,26,0.00,,SKC,0.00,WeatherDisplay:10.37,2013-03-30 19:46:00,
2013-03-30 15:51:00,56.2,22.6,29.93,NNW,332,2.3,0.0,27,0.00,,SKC,0.00,WeatherDisplay:10.37,2013-03-30 19:51:00,
2013-03-30 15:56:00,56.5,22.9,29.93,NNW,333,3.5,3.5,27,0.00,,SKC,0.00,WeatherDisplay:10.37,2013-03-30 19:56:00,
2013-03-30 16:01:00,56.5,22.0,29.93,NW,323,1.1,0.0,26,0.00,,SKC,0.00,WeatherDisplay:10.37,2013-03-30 20:01:00,
2013-03-30 16:07:00,56.6,22.1,29.92,North,7,3.5,3.5,26,0.00,,SKC,0.00,WeatherDisplay:10.37,2013-03-30 20:07:00,
2013-03-30 16:12:00,56.9,21.4,29.92,WSW,253,4.6,4.6,25,0.00,,SKC,0.00,WeatherDisplay:10.37,2013-03-30 20:12:00,
2013-03-30 16:18:00,57.2,21.6,29.92,North,350,2.3,2.3,25,0.00,,SKC,0.00,WeatherDisplay:10.37,2013-03-30 20:18:00,
2013-03-30 16:23:00,57.3,21.7,29.92,SW,220,1.1,1.1,25,0.00,,SKC,0.00,WeatherDisplay:10.37,2013-03-30 20:23:00,
2013-03-30 16:28:00,57.6,21.0,29.92,South,185,6.0,6.0,24,0.00,,SKC,0.00,WeatherDisplay:10.37,2013-03-30 20:28:00,
2013-03-30 16:33:00,58.1,21.4,29.92,North,6,3.5,3.5,24,0.00,,SKC,0.00,WeatherDisplay:10.37,2013-03-30 20:33:00,
2013-03-30 16:38:00,58.3,23.5,29.93,WNW,301,6.9,6.9,26,0.00,,SKC,0.00,WeatherDisplay:10.37,2013-03-30 20:38:00,
2013-03-30 16:43:00,58.4,22.7,29.92,WNW,301,1.1,0.0,25,0.00,,SKC,0.00,WeatherDisplay:10.37,2013-03-30 20:43:00,
2013-03-30 16:48:00,58.4,21.7,29.92,North,0,1.1,1.1,24,0.00,,SKC,0.00,WeatherDisplay:10.37,2013-03-30 20:48:00,
2013-03-30 16:53:00,58.4,22.7,29.92,SE,126,3.5,3.5,25,0.00,,SKC,0.00,WeatherDisplay:10.37,2013-03-30 20:53:00,
2013-03-30 16:58:00,58.4,22.7,29.93,East,100,1.1,0.0,25,0.00,,SKC,0.00,WeatherDisplay:10.37,2013-03-30 20:58:00,
2013-03-30 17:04:00,58.3,22.6,29.93,NNW,344,2.3,0.0,25,0.00,,SKC,0.00,WeatherDisplay:10.37,2013-03-30 21:04:00,
2013-03-30 17:09:00,57.8,23.1,29.93,WNW,284,3.5,0.0,26,0.00,,SKC,0.00,WeatherDisplay:10.37,2013-03-30 21:09:00,
2013-03-30 17:14:00,57.5,22.8,29.93,WNW,284,1.0,1.0,26,0.00,,SKC,0.00,WeatherDisplay:10.37,2013-03-30 21:14:00,
2013-03-30 17:19:00,57.0,24.2,29.93,SSE,147,3.5,0.0,28,0.00,,SKC,0.00,WeatherDisplay:10.37,2013-03-30 21:19:00,
2013-03-30 17:24:00,56.9,20.4,29.93,WNW,299,4.0,4.0,24,0.00,,SKC,0.00,WeatherDisplay:10.37,2013-03-30 21:24:00,
2013-03-30 17:29:00,56.7,21.2,29.93,SSW,195,6.9,6.9,25,0.00,,SKC,0.00,WeatherDisplay:10.37,2013-03-30 21:29:00,
2013-03-30 17:34:00,56.6,20.2,29.93,West,274,5.0,5.0,24,0.00,,SKC,0.00,WeatherDisplay:10.37,2013-03-30 21:34:00,
2013-03-30 17:40:00,56.6,22.1,29.93,NE,45,1.0,0.0,26,0.00,,SKC,0.00,WeatherDisplay:10.37,2013-03-30 21:40:00,
2013-03-30 17:45:00,56.6,20.2,29.93,SW,234,6.0,6.0,24,0.00,,SKC,0.00,WeatherDisplay:10.37,2013-03-30 21:45:00,
2013-03-30 17:52:00,56.5,22.0,29.93,SSW,193,0.0,0.0,26,0.00,,SKC,0.00,WeatherDisplay:10.37,2013-03-30 21:52:00,
2013-03-30 17:57:00,56.3,20.9,29.93,SSW,193,0.0,0.0,25,0.00,,SKC,0.00,WeatherDisplay:10.37,2013-03-30 21:57:00,
2013-03-30 18:03:00,56.0,20.6,29.94,SE,124,2.0,2.0,25,0.00,,SKC,0.00,WeatherDisplay:10.37,2013-03-30 22:03:00,
2013-03-30 18:09:00,55.6,19.3,29.93,WSW,256,6.9,6.9,24,0.00,,SKC,0.00,WeatherDisplay:10.37,2013-03-30 22:09:00,
2013-03-30 18:18:00,54.8,20.5,29.94,NW,316,2.3,0.0,26,0.00,,SKC,0.00,WeatherDisplay:10.37,2013-03-30 22:18:00,
2013-03-30 18:23:00,54.7,19.5,29.94,NW,316,1.1,0.0,25,0.00,,SKC,0.00,WeatherDisplay:10.37,2013-03-30 22:23:00,
2013-03-30 18:28:00,54.5,20.3,29.94,NNW,333,2.0,2.0,26,0.00,,SKC,0.00,WeatherDisplay:10.37,2013-03-30 22:28:00,
2013-03-30 18:33:00,54.2,19.1,29.94,North,354,2.3,2.3,25,0.00,,SKC,0.00,WeatherDisplay:10.37,2013-03-30 22:33:00,
2013-03-30 18:39:00,53.9,21.5,29.94,North,356,0.0,0.0,28,0.00,,SKC,0.00,WeatherDisplay:10.37,2013-03-30 22:39:00,
2013-03-30 18:44:00,53.9,20.6,29.94,North,356,0.0,0.0,27,0.00,,SKC,0.00,WeatherDisplay:10.37,2013-03-30 22:44:00,
2013-03-30 18:49:00,53.8,26.8,29.94,North,356,0.0,0.0,35,0.00,,SKC,0.00,WeatherDisplay:10.37,2013-03-30 22:49:00,
2013-03-30 18:54:00,53.5,27.2,29.94,North,0,0.0,0.0,36,0.00,,SKC,0.00,WeatherDisplay:10.37,2013-03-30 22:54:00,
2013-03-30 18:59:00,53.5,27.2,29.94,North,356,0.0,0.0,36,0.00,,SKC,0.00,WeatherDisplay:10.37,2013-03-30 22:59:00,
2013-03-30 19:04:00,52.2,25.3,29.94,North,356,0.0,0.0,35,0.00,,SKC,0.00,WeatherDisplay:10.37,2013-03-30 23:04:00,
2013-03-30 19:09:00,51.6,25.5,29.94,North,356,0.0,0.0,36,0.00,,SKC,0.00,WeatherDisplay:10.37,2013-03-30 23:09:00,
2013-03-30 19:15:00,50.8,24.1,29.95,North,356,0.0,0.0,35,0.00,CLR,SKC,0.00,WeatherDisplay:10.37,2013-03-30 23:15:00,
2013-03-30 19:20:00,50.4,27.0,29.95,North,356,0.0,0.0,40,0.00,,SKC,0.00,WeatherDisplay:10.37,2013-03-30 23:20:00,
2013-03-30 19:25:00,49.6,26.8,29.95,North,356,0.0,0.0,41,0.00,,SKC,0.00,WeatherDisplay:10.37,2013-03-30 23:25:00,
2013-03-30 19:30:00,49.1,27.0,29.95,North,356,0.0,0.0,42,0.00,,SKC,0.00,WeatherDisplay:10.37,2013-03-30 23:30:00,
2013-03-30 19:35:00,48.5,25.2,29.95,North,356,0.0,0.0,40,0.00,,SKC,0.00,WeatherDisplay:10.37,2013-03-30 23:35:00,
2013-03-30 19:40:00,47.9,26.5,29.95,North,354,0.0,0.0,43,0.00,,SKC,0.00,WeatherDisplay:10.37,2013-03-30 23:40:00,
2013-03-30 19:45:00,47.3,26.5,29.96,North,356,0.0,0.0,44,0.00,,SKC,0.00,WeatherDisplay:10.37,2013-03-30 23:45:00,
2013-03-30 19:50:00,46.7,26.5,29.96,North,356,0.0,0.0,45,0.00,,SKC,0.00,WeatherDisplay:10.37,2013-03-30 23:50:00,
2013-03-30 19:55:00,46.1,25.4,29.96,NNW,330,1.1,1.1,44,0.00,,SKC,0.00,WeatherDisplay:10.37,2013-03-30 23:55:00,
2013-03-30 20:00:00,45.4,24.7,29.97,NNW,330,1.1,0.0,44,0.00,,SKC,0.00,WeatherDisplay:10.37,2013-03-31 00:00:00,
2013-03-30 20:05:00,44.9,26.4,29.97,NNW,330,0.0,0.0,48,0.00,,SKC,0.00,WeatherDisplay:10.37,2013-03-31 00:05:00,
2013-03-30 20:11:00,44.5,24.5,29.97,NNW,330,0.0,0.0,45,0.00,,SKC,0.00,WeatherDisplay:10.37,2013-03-31 00:11:00,
2013-03-30 20:16:00,44.2,24.2,29.97,NNW,330,0.0,0.0,45,0.00,,SKC,0.00,WeatherDisplay:10.37,2013-03-31 00:16:00,
2013-03-30 20:21:00,43.9,23.9,29.97,NNW,330,0.0,0.0,45,0.00,,SKC,0.00,WeatherDisplay:10.37,2013-03-31 00:21:00,
2013-03-30 20:26:00,43.6,23.6,29.98,NNW,330,0.0,0.0,45,0.00,,SKC,0.00,WeatherDisplay:10.37,2013-03-31 00:26:00,
2013-03-30 20:31:00,43.3,23.4,29.98,NNW,330,0.0,0.0,45,0.00,,SKC,0.00,WeatherDisplay:10.37,2013-03-31 00:31:00,
2013-03-30 20:37:00,43.1,24.2,29.98,NNW,330,0.0,0.0,47,0.00,,SKC,0.00,WeatherDisplay:10.37,2013-03-31 00:37:00,
2013-03-30 20:42:00,42.9,23.0,29.98,NNW,330,2.3,0.0,45,0.00,,SKC,0.00,WeatherDisplay:10.37,2013-03-31 00:42:00,
2013-03-30 20:47:00,42.9,23.0,29.98,NNW,330,2.3,2.3,45,0.00,,SKC,0.00,WeatherDisplay:10.37,2013-03-31 00:47:00,
2013-03-30 20:52:00,43.1,23.2,29.98,NNW,330,0.0,0.0,45,0.00,,SKC,0.00,WeatherDisplay:10.37,2013-03-31 00:52:00,
2013-03-30 20:57:00,43.1,23.7,29.98,NNW,330,0.0,0.0,46,0.00,,SKC,0.00,WeatherDisplay:10.37,2013-03-31 00:57:00,
2013-03-30 21:02:00,43.1,20.4,29.99,NNW,330,1.1,1.1,40,0.00,,SKC,0.00,WeatherDisplay:10.37,2013-03-31 01:02:00,
2013-03-30 21:07:00,43.3,22.3,29.99,NNW,330,0.0,0.0,43,0.00,,SKC,0.00,WeatherDisplay:10.37,2013-03-31 01:07:00,
2013-03-30 21:12:00,43.6,20.2,29.99,NNW,330,2.3,2.3,39,0.00,,SKC,0.00,WeatherDisplay:10.37,2013-03-31 01:12:00,
2013-03-30 21:17:00,44.1,19.5,29.99,NW,306,3.5,3.5,37,0.00,,SKC,0.00,WeatherDisplay:10.37,2013-03-31 01:17:00,
2013-03-30 21:22:00,44.5,21.6,29.99,NW,306,2.3,0.0,40,0.00,,SKC,0.00,WeatherDisplay:10.37,2013-03-31 01:22:00,
2013-03-30 21:27:00,44.8,23.6,29.99,NW,306,0.0,0.0,43,0.00,,SKC,0.00,WeatherDisplay:10.37,2013-03-31 01:27:00,
2013-03-30 21:32:00,44.8,22.5,29.99,NW,306,0.0,0.0,41,0.00,,SKC,0.00,WeatherDisplay:10.37,2013-03-31 01:32:00,
2013-03-30 21:37:00,44.6,22.9,29.99,NW,306,0.0,0.0,42,0.00,,SKC,0.00,WeatherDisplay:10.37,2013-03-31 01:37:00,
2013-03-30 21:42:00,44.3,23.2,29.99,NW,306,0.0,0.0,43,0.00,,SKC,0.00,WeatherDisplay:10.37,2013-03-31 01:42:00,
2013-03-30 21:47:00,44.1,23.0,30.00,NW,306,0.0,0.0,43,0.00,,SKC,0.00,WeatherDisplay:10.37,2013-03-31 01:47:00,
2013-03-30 21:52:00,43.8,22.7,29.99,NW,306,0.0,0.0,43,0.00,,SKC,0.00,WeatherDisplay:10.37,2013-03-31 01:52:00,
2013-03-30 21:57:00,43.3,22.8,30.00,NW,306,0.0,0.0,44,0.00,,SKC,0.00,WeatherDisplay:10.37,2013-03-31 01:57:00,
2013-03-30 22:02:00,43.1,24.2,30.00,NW,306,0.0,0.0,47,0.00,,SKC,0.00,WeatherDisplay:10.37,2013-03-31 02:02:00,
2013-03-30 22:07:00,42.8,23.4,30.00,NW,306,0.0,0.0,46,0.00,,SKC,0.00,WeatherDisplay:10.37,2013-03-31 02:07:00,
2013-03-30 22:13:00,42.2,23.4,30.00,NW,306,0.0,0.0,47,0.00,,SKC,0.00,WeatherDisplay:10.37,2013-03-31 02:13:00,
2013-03-30 22:19:00,41.9,24.1,30.00,NW,306,0.0,0.0,49,0.00,,SKC,0.00,WeatherDisplay:10.37,2013-03-31 02:19:00,
2013-03-30 22:24:00,41.6,23.8,30.00,NW,306,0.0,0.0,49,0.00,,SKC,0.00,WeatherDisplay:10.37,2013-03-31 02:24:00,
2013-03-30 22:29:00,41.3,24.0,30.00,NW,306,0.0,0.0,50,0.00,,SKC,0.00,WeatherDisplay:10.37,2013-03-31 02:29:00,
2013-03-30 22:34:00,41.1,24.8,30.00,NW,306,0.0,0.0,52,0.00,,SKC,0.00,WeatherDisplay:10.37,2013-03-31 02:34:00,
2013-03-30 22:39:00,40.6,25.2,30.00,NW,306,0.0,0.0,54,0.00,,SKC,0.00,WeatherDisplay:10.37,2013-03-31 02:39:00,
2013-03-30 22:44:00,40.2,24.9,30.00,NW,306,0.0,0.0,54,0.00,,SKC,0.00,WeatherDisplay:10.37,2013-03-31 02:44:00,
2013-03-30 22:49:00,39.9,25.0,30.00,NW,306,0.0,0.0,55,0.00,,SKC,0.00,WeatherDisplay:10.37,2013-03-31 02:49:00,
2013-03-30 22:54:00,39.5,25.5,30.00,NW,306,0.0,0.0,57,0.00,,SKC,0.00,WeatherDisplay:10.37,2013-03-31 02:54:00,
2013-03-30 22:59:00,39.2,25.2,30.00,NW,306,0.0,0.0,57,0.00,,SKC,0.00,WeatherDisplay:10.37,2013-03-31 02:59:00,
2013-03-30 23:04:00,38.8,25.7,30.00,SSE,168,0.0,0.0,59,0.00,,SKC,0.00,WeatherDisplay:10.37,2013-03-31 03:04:00,
2013-03-30 23:09:00,38.3,25.2,30.00,SSE,168,0.0,0.0,59,0.00,,SKC,0.00,WeatherDisplay:10.37,2013-03-31 03:09:00,
2013-03-30 23:14:00,38.0,25.3,30.00,SSE,168,0.0,0.0,60,0.00,,SKC,0.00,WeatherDisplay:10.37,2013-03-31 03:14:00,
2013-03-30 23:19:00,37.6,25.7,30.00,SSE,168,0.0,0.0,62,0.00,,SKC,0.00,WeatherDisplay:10.37,2013-03-31 03:19:00,
2013-03-30 23:24:00,37.2,25.4,30.00,SSE,168,0.0,0.0,62,0.00,,SKC,0.00,WeatherDisplay:10.37,2013-03-31 03:24:00,
2013-03-30 23:29:00,36.9,24.7,30.00,SSE,168,0.0,0.0,61,0.00,,SKC,0.00,WeatherDisplay:10.37,2013-03-31 03:29:00,
2013-03-30 23:34:00,36.6,24.8,30.00,SSE,168,0.0,0.0,62,0.00,,SKC,0.00,WeatherDisplay:10.37,2013-03-31 03:34:00,
2013-03-30 23:39:00,36.5,25.1,30.00,SSE,168,0.0,0.0,63,0.00,,SKC,0.00,WeatherDisplay:10.37,2013-03-31 03:39:00,
2013-03-30 23:44:00,36.2,25.2,30.01,SSE,168,0.0,0.0,64,0.00,,SKC,0.00,WeatherDisplay:10.37,2013-03-31 03:44:00,
2013-03-30 23:49:00,36.0,25.0,30.01,SSE,168,0.0,0.0,64,0.00,,SKC,0.00,WeatherDisplay:10.37,2013-03-31 03:49:00,
2013-03-30 23:54:00,35.8,25.2,30.01,SSE,168,0.0,0.0,65,0.00,,SKC,0.00,WeatherDisplay:10.37,2013-03-31 03:54:00,